Time;durP1;ratioP1;P1;durP2;ratioP2;P2;SDS_P1;SDS_P2;PMS_P1;PMS_P2;Temp;Humidity;BMP_temperature;BMP_pressure;BME280_temperature;BME280_humidity;BME280_pressure;Samples;Min_cycle;Max_cycle;Signal;HPM_P1;HPM_P2
2021/07/17 00:02:00;;;;;;;10.32;4.42;;;;;;;30.95;42.84;101034.91;1617141;88;21554;-49
2021/07/17 00:04:28;;;;;;;7.00;4.67;;;;;;;30.93;43.10;101035.56;1617240;88;21542;-50
2021/07/17 00:06:56;;;;;;;8.35;4.55;;;;;;;30.92;43.32;101039.23;1615138;88;21538;-47
2021/07/17 00:09:24;;;;;;;15.13;5.15;;;;;;;30.91;43.52;101033.53;1614440;88;21062;-51
2021/07/17 00:11:50;;;;;;;9.85;4.90;;;;;;;30.88;43.81;101034.68;1614300;88;21059;-51
2021/07/17 00:14:17;;;;;;;10.55;4.70;;;;;;;30.86;43.92;101038.52;1614305;88;21053;-48
2021/07/17 00:16:46;;;;;;;10.65;5.00;;;;;;;30.85;44.23;101036.85;1614341;87;21542;-49
2021/07/17 00:19:13;;;;;;;9.55;4.65;;;;;;;30.85;44.48;101039.53;1616358;88;21570;-50
2021/07/17 00:21:39;;;;;;;8.88;5.08;;;;;;;30.83;44.78;101036.13;1617011;88;21006;-47
2021/07/17 00:24:08;;;;;;;7.53;4.65;;;;;;;30.82;44.87;101035.77;1614906;88;21304;-50
2021/07/17 00:26:34;;;;;;;14.15;4.95;;;;;;;30.80;45.08;101035.94;1615739;88;21518;-47
2021/07/17 00:29:01;;;;;;;10.80;4.85;;;;;;;30.79;45.29;101034.76;1614952;88;21069;-46
2021/07/17 00:31:28;;;;;;;7.08;4.70;;;;;;;30.78;45.61;101038.42;1606143;88;21086;-50
2021/07/17 00:33:54;;;;;;;11.50;4.83;;;;;;;30.76;45.69;101035.05;1616399;88;21069;-47
2021/07/17 00:36:21;;;;;;;13.75;4.83;;;;;;;30.74;45.72;101035.70;1617222;88;21086;-47
2021/07/17 00:38:47;;;;;;;9.58;4.90;;;;;;;30.73;45.63;101034.04;1615675;88;21095;-49
2021/07/17 00:41:14;;;;;;;11.25;4.60;;;;;;;30.72;45.57;101033.19;1615378;88;21019;-46
2021/07/17 00:43:41;;;;;;;9.20;4.55;;;;;;;30.73;45.26;101030.83;1616332;88;22300;-46
2021/07/17 00:46:07;;;;;;;13.35;5.30;;;;;;;30.73;44.91;101030.02;1617104;88;21026;-50
2021/07/17 00:48:35;;;;;;;10.58;5.20;;;;;;;30.74;44.69;101034.37;1617111;88;21034;-47
2021/07/17 00:51:02;;;;;;;6.87;4.47;;;;;;;30.74;44.43;101031.68;1597691;87;21566;-50
2021/07/17 00:53:29;;;;;;;5.35;4.58;;;;;;;30.74;44.39;101030.34;1639841;86;22039;-47
2021/07/17 00:55:56;;;;;;;7.67;4.28;;;;;;;30.74;44.58;101030.34;1636177;87;21049;-47
2021/07/17 00:58:25;;;;;;;7.95;4.47;;;;;;;30.74;44.48;101031.68;1638118;86;21107;-49
2021/07/17 01:00:52;;;;;;;7.78;4.10;;;;;;;30.72;44.60;101028.31;1639641;87;21055;-50
2021/07/17 01:03:19;;;;;;;7.60;3.98;;;;;;;30.71;44.53;101026.64;1640032;87;21516;-47
2021/07/17 01:05:47;;;;;;;12.35;4.65;;;;;;;30.71;44.69;101023.95;1616745;87;21056;-47
2021/07/17 01:08:15;;;;;;;10.90;4.50;;;;;;;30.69;44.65;101024.08;1642290;87;21079;-46
2021/07/17 01:10:44;;;;;;;9.28;4.25;;;;;;;30.68;44.64;101021.56;1637910;87;21115;-47
2021/07/17 01:13:11;;;;;;;9.55;4.58;;;;;;;30.67;44.52;101026.58;1636183;86;21113;-52
2021/07/17 01:15:37;;;;;;;12.07;5.10;;;;;;;30.66;44.96;101023.07;1640513;86;21016;-49
2021/07/17 01:18:06;;;;;;;9.08;4.67;;;;;;;30.65;44.73;101023.20;1643681;86;21527;-47
2021/07/17 01:20:33;;;;;;;8.28;4.67;;;;;;;30.65;44.60;101021.86;1640315;87;21511;-49
2021/07/17 01:23:00;;;;;;;8.05;4.30;;;;;;;30.64;44.52;101018.84;1637140;87;21587;-47
2021/07/17 01:25:29;;;;;;;8.18;4.33;;;;;;;30.62;44.88;101016.81;1636190;87;21055;-48
2021/07/17 01:27:57;;;;;;;6.80;4.35;;;;;;;30.61;44.92;101020.48;1630830;86;21051;-47
2021/07/17 01:30:27;;;;;;;8.40;4.37;;;;;;;30.59;45.17;101013.08;1639297;87;21071;-48
2021/07/17 01:32:54;;;;;;;5.50;4.08;;;;;;;30.57;45.05;101014.59;1631326;87;21064;-47
2021/07/17 01:35:21;;;;;;;5.97;4.22;;;;;;;30.54;45.05;101007.67;1637001;86;21064;-47
2021/07/17 01:37:48;;;;;;;11.08;5.20;;;;;;;30.53;45.02;101003.32;1637778;87;21595;-50
2021/07/17 01:40:20;;;;;;;5.85;4.10;;;;;;;30.51;44.67;101002.63;1639395;86;21067;-47
2021/07/17 01:42:50;;;;;;;6.17;4.20;;;;;;;30.51;44.53;101008.00;1638173;87;21566;-50
2021/07/17 01:45:35;;;;;;;6.92;3.95;;;;;;;30.50;44.54;101005.48;1640631;87;21166;-48
2021/07/17 01:48:04;;;;;;;4.20;3.77;;;;;;;30.48;44.71;101008.30;1627360;87;21079;-47
2021/07/17 01:50:31;;;;;;;6.28;3.95;;;;;;;30.47;45.00;101010.66;1641816;87;21056;-47
2021/07/17 01:52:59;;;;;;;10.90;4.55;;;;;;;30.46;44.89;101006.27;1639972;87;21572;-50
2021/07/17 01:55:26;;;;;;;7.22;3.83;;;;;;;30.46;44.75;101002.73;1638639;87;21098;-51
2021/07/17 01:57:52;;;;;;;8.60;4.37;;;;;;;30.45;44.67;101003.25;1631792;87;21020;-50
2021/07/17 02:00:20;;;;;;;8.50;3.95;;;;;;;30.44;44.65;101008.27;1641583;87;21586;-47
2021/07/17 02:02:48;;;;;;;8.18;4.10;;;;;;;30.43;44.43;101014.66;1639920;87;21060;-50
2021/07/17 02:05:15;;;;;;;7.45;3.87;;;;;;;30.42;44.34;101008.92;1638054;86;21056;-47
2021/07/17 02:07:46;;;;;;;8.40;4.42;;;;;;;30.42;44.50;101014.29;1640308;86;21071;-51
2021/07/17 02:10:19;;;;;;;9.55;4.70;;;;;;;30.42;44.79;101010.27;1638176;86;21015;-50
2021/07/17 02:13:10;;;;;;;7.20;3.52;;;;;;;30.43;45.21;101007.09;1641296;86;21047;-47
2021/07/17 02:15:47;;;;;;;7.80;3.67;;;;;;;30.42;46.23;101008.92;1553790;90;21118;-50
2021/07/17 02:18:16;;;;;;;6.70;4.25;;;;;;;30.43;46.94;101007.94;1490986;96;21159;-47
2021/07/17 02:20:42;;;;;;;7.30;3.92;;;;;;;30.42;46.60;101007.58;1513568;93;21091;-50
2021/07/17 02:23:09;;;;;;;8.15;4.40;;;;;;;30.28;46.84;101005.41;1489630;95;21124;-48
2021/07/17 02:25:36;;;;;;;4.90;4.30;;;;;;;30.26;46.66;101006.06;1483916;96;21126;-48
2021/07/17 02:28:04;;;;;;;9.98;4.60;;;;;;;30.26;46.63;101008.75;1487362;94;21625;-49
2021/07/17 02:30:31;;;;;;;10.18;4.30;;;;;;;30.27;46.19;101005.08;1508309;94;21087;-47
2021/07/17 02:32:57;;;;;;;7.97;3.87;;;;;;;30.43;45.94;101009.28;1513004;93;21641;-49
2021/07/17 02:35:24;;;;;;;6.22;3.77;;;;;;;30.47;45.94;101007.13;1512621;93;21075;-47
2021/07/17 02:37:51;;;;;;;7.33;4.00;;;;;;;30.48;45.82;101008.79;1488480;95;21100;-47
2021/07/17 02:40:17;;;;;;;7.95;4.45;;;;;;;30.47;45.79;101006.63;1514053;94;21070;-49
2021/07/17 02:42:46;;;;;;;8.60;4.65;;;;;;;30.46;45.69;101002.23;1488749;96;21119;-48
2021/07/17 02:45:13;;;;;;;8.03;4.28;;;;;;;30.46;45.89;101010.78;1486505;96;21191;-50
2021/07/17 02:47:40;;;;;;;9.98;4.28;;;;;;;30.46;46.18;101012.12;1509578;94;21086;-47
2021/07/17 02:50:09;;;;;;;27.40;5.03;;;;;;;30.44;46.56;101017.66;1509801;94;21723;-51
2021/07/17 02:52:35;;;;;;;9.13;4.10;;;;;;;30.43;46.66;101016.48;1523282;92;21775;-46
2021/07/17 02:55:04;;;;;;;8.70;3.95;;;;;;;30.41;46.66;101016.65;1551950;92;21625;-50
2021/07/17 02:57:31;;;;;;;6.60;3.98;;;;;;;30.40;46.45;101015.44;1516453;93;21551;-48
2021/07/17 03:00:00;;;;;;;9.05;4.05;;;;;;;30.40;46.12;101017.63;1574584;90;21056;-48
2021/07/17 03:02:27;;;;;;;6.90;4.12;;;;;;;30.41;46.00;101012.63;1573864;90;21044;-50
2021/07/17 03:04:54;;;;;;;10.98;3.90;;;;;;;30.44;45.91;101020.84;1568231;90;21144;-47
2021/07/17 03:07:21;;;;;;;12.00;4.00;;;;;;;30.44;46.07;101016.32;1566722;91;21552;-53
2021/07/17 03:09:47;;;;;;;7.28;3.87;;;;;;;30.46;45.79;101017.02;1566496;90;21057;-50
2021/07/17 03:12:14;;;;;;;8.45;4.15;;;;;;;30.45;45.60;101019.37;1566403;91;21561;-47
2021/07/17 03:14:40;;;;;;;9.90;3.85;;;;;;;30.45;45.75;101009.97;1566133;90;21092;-47
2021/07/17 03:17:07;;;;;;;10.08;4.80;;;;;;;30.45;45.83;101019.86;1567580;91;21208;-50
2021/07/17 03:19:34;;;;;;;14.98;4.92;;;;;;;30.44;45.88;101018.16;1569351;91;21610;-47
2021/07/17 03:22:00;;;;;;;15.05;4.72;;;;;;;30.44;45.84;101022.19;1600744;87;21038;-47
2021/07/17 03:24:28;;;;;;;65.92;7.70;;;;;;;30.42;46.16;101018.81;1607412;88;21090;-49
2021/07/17 03:26:57;;;;;;;12.15;4.45;;;;;;;30.42;46.25;101018.81;1614863;88;21098;-47
2021/07/17 03:29:24;;;;;;;7.35;4.30;;;;;;;30.41;46.35;101022.02;1600049;88;21558;-49
2021/07/17 03:31:51;;;;;;;7.53;4.15;;;;;;;30.41;46.39;101023.36;1617113;88;21034;-52
2021/07/17 03:34:18;;;;;;;16.10;4.75;;;;;;;30.41;46.11;101009.94;1615698;88;21069;-50
2021/07/17 03:36:45;;;;;;;8.88;4.75;;;;;;;30.43;45.95;101011.11;1615636;88;21038;-47
2021/07/17 03:39:12;;;;;;;10.32;4.47;;;;;;;30.45;45.66;101016.69;1616287;88;21102;-50
2021/07/17 03:41:38;;;;;;;9.93;4.35;;;;;;;30.51;45.58;101010.69;1617286;88;21054;-50
2021/07/17 03:44:07;;;;;;;14.45;4.80;;;;;;;30.62;45.69;101014.13;1617143;88;21026;-47
2021/07/17 03:46:34;;;;;;;12.05;4.72;;;;;;;30.81;45.66;101021.48;1615607;88;21048;-47
2021/07/17 03:49:00;;;;;;;8.68;4.20;;;;;;;31.17;44.93;101019.58;1614519;88;21110;-48
2021/07/17 03:51:27;;;;;;;8.05;4.35;;;;;;;31.65;43.88;101015.83;1614769;88;21569;-50
2021/07/17 03:53:53;;;;;;;7.22;3.95;;;;;;;32.23;42.82;101012.30;1614024;88;21057;-50
2021/07/17 03:56:22;;;;;;;7.20;4.53;;;;;;;32.79;41.60;101008.28;1614466;88;21097;-48
2021/07/17 03:58:48;;;;;;;6.72;4.85;;;;;;;33.23;40.75;101016.33;1616316;88;21086;-52
2021/07/17 04:01:16;;;;;;;37.10;6.35;;;;;;;33.53;40.32;101012.87;1617003;88;21038;-51
2021/07/17 04:03:46;;;;;;;11.50;4.53;;;;;;;33.83;39.17;101010.37;1616665;88;21085;-49
2021/07/17 04:06:12;;;;;;;11.08;4.30;;;;;;;34.05;38.53;101009.59;1609136;88;21069;-48
2021/07/17 04:08:40;;;;;;;63.75;8.98;;;;;;;34.19;38.26;101009.66;1615741;87;21602;-47
2021/07/17 04:11:06;;;;;;;182.32;15.95;;;;;;;34.31;38.05;101008.22;1615496;88;21002;-47
2021/07/17 04:13:33;;;;;;;7.33;4.50;;;;;;;34.31;37.92;101005.52;1617169;88;21505;-51
2021/07/17 04:16:00;;;;;;;14.70;5.33;;;;;;;34.19;38.29;101008.31;1616408;88;21038;-48
2021/07/17 04:18:29;;;;;;;12.55;5.87;;;;;;;34.01;38.69;101002.86;1609311;88;21122;-51
2021/07/17 04:20:55;;;;;;;79.42;8.90;;;;;;;33.79;39.30;101009.05;1604371;88;21558;-50
2021/07/17 04:23:22;;;;;;;6.55;4.80;;;;;;;33.55;39.76;101005.44;1617135;88;21013;-51
2021/07/17 04:25:50;;;;;;;15.13;4.80;;;;;;;33.33;40.08;101003.48;1615984;88;21105;-50
2021/07/17 04:28:18;;;;;;;9.65;4.40;;;;;;;33.14;40.61;101000.35;1614191;88;21150;-50
2021/07/17 04:30:45;;;;;;;13.32;8.65;;;;;;;32.94;41.18;101008.43;1614448;88;21022;-47
2021/07/17 04:33:12;;;;;;;5.28;4.80;;;;;;;32.76;41.74;101005.45;1610799;88;21102;-48
2021/07/17 04:35:41;;;;;;;6.40;4.70;;;;;;;32.60;41.92;101007.31;1617287;88;21066;-50
2021/07/17 04:38:08;;;;;;;8.63;5.10;;;;;;;32.46;42.02;100999.91;1615612;88;21128;-48
2021/07/17 04:40:35;;;;;;;9.30;5.58;;;;;;;32.32;42.47;100998.67;1615278;88;21053;-48
2021/07/17 04:43:01;;;;;;;10.08;4.72;;;;;;;32.22;42.78;100998.48;1616394;88;21545;-48
2021/07/17 04:45:28;;;;;;;10.82;4.90;;;;;;;32.12;43.16;101003.19;1617136;88;21038;-50
2021/07/17 04:47:54;;;;;;;17.15;6.87;;;;;;;32.03;43.34;101000.48;1616959;88;21551;-47
2021/07/17 04:50:21;;;;;;;7.12;4.65;;;;;;;31.98;43.90;101004.16;1605321;88;21054;-47
2021/07/17 04:52:49;;;;;;;14.00;5.50;;;;;;;31.94;44.36;101002.81;1614282;88;21121;-51
2021/07/17 04:55:17;;;;;;;10.55;5.22;;;;;;;31.89;44.56;100997.06;1616071;88;21094;-46
2021/07/17 04:57:43;;;;;;;6.33;5.12;;;;;;;31.87;44.89;100994.19;1617189;88;21034;-50
2021/07/17 05:00:12;;;;;;;7.25;5.10;;;;;;;31.81;45.38;100991.66;1614796;88;21478;-46
2021/07/17 05:02:47;;;;;;;10.72;5.80;;;;;;;31.78;45.69;100994.66;1614168;88;21034;-47
2021/07/17 05:05:18;;;;;;;12.93;6.33;;;;;;;31.75;46.07;100996.84;1622566;87;21010;-47
2021/07/17 05:07:46;;;;;;;7.42;5.58;;;;;;;31.73;46.03;100994.33;1617884;87;21526;-46
2021/07/17 05:10:16;;;;;;;13.28;5.50;;;;;;;31.71;46.25;101000.88;1613893;87;21082;-49
2021/07/17 05:12:43;;;;;;;9.08;5.30;;;;;;;31.69;46.31;100999.70;1614683;88;21066;-48
2021/07/17 05:15:11;;;;;;;9.28;5.45;;;;;;;31.73;46.27;101003.75;1616024;88;22146;-47
2021/07/17 05:17:39;;;;;;;11.15;5.85;;;;;;;31.78;46.12;101000.58;1613533;88;21565;-49
2021/07/17 05:20:08;;;;;;;9.90;6.00;;;;;;;31.85;45.89;101005.12;1610663;88;21529;-49
2021/07/17 05:22:35;;;;;;;9.55;5.67;;;;;;;31.95;46.13;101008.55;1614108;88;21034;-50
2021/07/17 05:25:02;;;;;;;11.25;6.75;;;;;;;32.05;45.80;101006.55;1614655;88;21074;-50
2021/07/17 05:27:29;;;;;;;12.07;6.37;;;;;;;32.16;45.81;101002.70;1612539;88;21026;-47
2021/07/17 05:29:55;;;;;;;13.62;6.12;;;;;;;32.24;45.90;101003.20;1610910;88;21510;-46
2021/07/17 05:32:22;;;;;;;8.88;6.08;;;;;;;32.30;45.76;101010.61;1614845;88;21034;-49
2021/07/17 05:34:50;;;;;;;8.75;5.40;;;;;;;32.36;45.74;101007.25;1613909;88;21014;-48
2021/07/17 05:37:16;;;;;;;9.28;6.50;;;;;;;32.35;45.53;101013.66;1616353;88;21062;-48
2021/07/17 05:39:43;;;;;;;16.27;7.60;;;;;;;32.41;45.72;101010.30;1616908;88;21058;-50
2021/07/17 05:42:10;;;;;;;6.87;5.83;;;;;;;32.42;45.87;101007.42;1616395;88;21049;-47
2021/07/17 05:44:37;;;;;;;8.88;6.53;;;;;;;32.47;45.76;101009.66;1614612;88;21089;-49
2021/07/17 05:47:04;;;;;;;7.47;6.30;;;;;;;32.52;45.80;101012.70;1615990;88;21053;-51
2021/07/17 05:49:31;;;;;;;9.28;5.85;;;;;;;32.59;45.41;101012.34;1606298;88;21037;-48
2021/07/17 05:51:57;;;;;;;11.53;6.15;;;;;;;32.65;45.26;101010.31;1613548;87;21059;-48
2021/07/17 05:54:24;;;;;;;9.10;6.33;;;;;;;32.74;44.93;101013.36;1620789;87;21055;-48
2021/07/17 05:56:50;;;;;;;7.22;6.17;;;;;;;32.83;45.03;101013.66;1641560;87;21020;-48
2021/07/17 05:59:17;;;;;;;9.85;6.40;;;;;;;32.92;44.96;101019.39;1639842;86;21064;-48
2021/07/17 06:01:43;;;;;;;7.50;5.92;;;;;;;33.01;44.87;101012.17;1625970;87;21544;-52
2021/07/17 06:04:10;;;;;;;10.08;6.83;;;;;;;33.11;44.88;101017.71;1640442;86;21067;-48
2021/07/17 06:06:37;;;;;;;9.18;6.25;;;;;;;33.23;44.80;101015.48;1640555;87;21046;-50
2021/07/17 06:09:03;;;;;;;7.80;6.00;;;;;;;33.37;44.63;101019.65;1640297;87;21020;-50
2021/07/17 06:11:30;;;;;;;10.55;5.87;;;;;;;33.50;44.33;101017.28;1642023;87;21005;-49
2021/07/17 06:13:58;;;;;;;9.15;5.87;;;;;;;33.63;44.14;101016.19;1635313;86;21071;-50
2021/07/17 06:16:24;;;;;;;8.80;6.05;;;;;;;33.74;43.92;101021.72;1628306;86;21083;-47
2021/07/17 06:18:52;;;;;;;10.90;6.45;;;;;;;33.84;43.87;101022.87;1639333;87;22299;-50
2021/07/17 06:21:19;;;;;;;13.05;6.83;;;;;;;33.95;43.88;101026.00;1638959;87;21052;-47
2021/07/17 06:23:47;;;;;;;16.67;7.55;;;;;;;34.10;43.89;101018.01;1640651;86;21695;-49
2021/07/17 06:26:13;;;;;;;19.57;9.35;;;;;;;34.25;43.62;101017.05;1637912;87;21024;-49
2021/07/17 06:28:40;;;;;;;13.70;8.83;;;;;;;34.37;42.93;101018.83;1637394;87;21635;-48
2021/07/17 06:31:07;;;;;;;15.65;9.28;;;;;;;34.45;42.53;101017.42;1638320;86;21071;-50
2021/07/17 06:33:35;;;;;;;12.28;10.10;;;;;;;34.49;42.34;101016.06;1640101;86;21537;-52
2021/07/17 06:36:02;;;;;;;13.25;8.95;;;;;;;34.50;42.42;101009.63;1613205;87;21026;-50
2021/07/17 06:38:29;;;;;;;12.47;8.98;;;;;;;34.48;42.63;101017.04;1635879;87;21529;-47
2021/07/17 06:40:55;;;;;;;13.32;8.60;;;;;;;34.43;42.83;101015.41;1645971;87;21040;-50
2021/07/17 06:43:22;;;;;;;9.28;8.38;;;;;;;34.44;43.03;101013.87;1639506;86;21519;-50
2021/07/17 06:45:49;;;;;;;10.35;9.25;;;;;;;34.44;43.05;101015.72;1640161;86;21092;-48
2021/07/17 06:48:15;;;;;;;11.68;8.78;;;;;;;34.41;43.29;101016.09;1640596;86;21216;-49
2021/07/17 06:50:43;;;;;;;15.15;9.28;;;;;;;34.38;43.43;101011.05;1637485;86;21095;-49
2021/07/17 06:53:10;;;;;;;23.57;10.20;;;;;;;34.33;43.54;101012.11;1633277;87;21056;-49
2021/07/17 06:55:37;;;;;;;10.38;8.93;;;;;;;34.27;43.44;101018.23;1637351;85;21549;-49
2021/07/17 06:58:04;;;;;;;22.67;10.15;;;;;;;34.20;43.70;101009.16;1620278;87;21053;-49
2021/07/17 07:00:34;;;;;;;21.55;9.78;;;;;;;34.12;43.75;101001.11;1620121;88;21074;-49
2021/07/17 07:03:00;;;;;;;12.23;9.18;;;;;;;34.04;43.75;101005.22;1613843;88;21093;-49
2021/07/17 07:05:27;;;;;;;15.48;10.80;;;;;;;33.99;43.93;101011.16;1611290;88;21046;-49
2021/07/17 07:07:54;;;;;;;19.37;9.35;;;;;;;33.96;44.12;101008.80;1614591;88;21545;-48
2021/07/17 07:10:20;;;;;;;11.65;9.30;;;;;;;33.93;44.34;101009.63;1614612;88;21057;-49
2021/07/17 07:12:47;;;;;;;11.08;9.75;;;;;;;33.93;44.16;101018.58;1616061;88;21014;-47
2021/07/17 07:15:14;;;;;;;14.93;10.50;;;;;;;33.96;44.42;101021.45;1616837;88;21042;-47
2021/07/17 07:17:41;;;;;;;13.50;11.00;;;;;;;33.98;44.74;101031.05;1617088;88;21129;-49
2021/07/17 07:20:11;;;;;;;12.35;11.03;;;;;;;34.01;44.85;101030.72;1608933;88;21066;-48
2021/07/17 07:22:37;;;;;;;16.15;12.35;;;;;;;34.00;44.71;101030.91;1616228;88;21030;-47
2021/07/17 07:25:05;;;;;;;14.83;10.13;;;;;;;34.01;44.93;101029.87;1614961;88;21038;-50
2021/07/17 07:27:33;;;;;;;15.32;10.75;;;;;;;33.97;45.19;101040.66;1617151;88;21046;-48
2021/07/17 07:29:59;;;;;;;14.65;11.05;;;;;;;33.95;45.17;101040.00;1612169;88;21055;-50
2021/07/17 07:32:27;;;;;;;16.27;11.12;;;;;;;33.97;45.54;101047.41;1610312;88;21098;-46
2021/07/17 07:34:54;;;;;;;17.57;11.68;;;;;;;33.95;45.82;101038.14;1616927;88;21614;-46
2021/07/17 07:37:20;;;;;;;19.52;12.18;;;;;;;33.98;45.83;101043.70;1616976;88;21066;-46
2021/07/17 07:39:47;;;;;;;14.38;11.12;;;;;;;33.97;45.94;101044.71;1615040;88;21147;-47
2021/07/17 07:42:14;;;;;;;14.23;11.88;;;;;;;33.83;46.70;101041.41;1616455;88;21565;-49
2021/07/17 07:44:40;;;;;;;16.27;13.15;;;;;;;33.84;47.05;101037.18;1615292;88;21066;-47
2021/07/17 07:47:07;;;;;;;14.90;11.63;;;;;;;33.86;46.97;101038.38;1616838;88;21038;-47
2021/07/17 07:49:34;;;;;;;14.63;11.45;;;;;;;33.86;47.14;101030.28;1616873;88;21066;-51
2021/07/17 07:52:01;;;;;;;18.15;12.25;;;;;;;33.89;47.31;101032.61;1614378;88;21554;-49
2021/07/17 07:54:27;;;;;;;16.48;13.03;;;;;;;33.92;47.23;101029.57;1614296;88;21066;-47
2021/07/17 07:56:54;;;;;;;15.05;13.15;;;;;;;33.88;47.26;101029.59;1606615;88;21537;-48
2021/07/17 07:59:21;;;;;;;18.02;12.82;;;;;;;33.89;47.36;101028.56;1616401;88;21071;-47
2021/07/17 08:01:48;;;;;;;14.87;13.35;;;;;;;33.87;47.69;101033.30;1614419;88;21050;-47
2021/07/17 08:04:15;;;;;;;16.12;13.18;;;;;;;33.88;47.62;101026.89;1614171;88;21039;-48
2021/07/17 08:06:43;;;;;;;17.30;13.45;;;;;;;33.89;47.74;101029.41;1614613;87;21003;-53
2021/07/17 08:09:10;;;;;;;16.07;12.95;;;;;;;33.92;47.66;101033.63;1614179;88;21077;-46
2021/07/17 08:11:37;;;;;;;21.33;13.32;;;;;;;33.94;47.51;101034.28;1614878;88;21026;-48
2021/07/17 08:14:04;;;;;;;13.88;12.50;;;;;;;33.94;47.66;101027.53;1616922;88;21054;-47
2021/07/17 08:16:32;;;;;;;16.57;13.25;;;;;;;33.93;47.50;101025.33;1616997;88;21038;-50
2021/07/17 08:18:59;;;;;;;16.25;13.62;;;;;;;33.94;47.51;101024.33;1615633;88;21003;-47
2021/07/17 08:21:27;;;;;;;15.75;13.72;;;;;;;33.96;47.62;101024.99;1615206;88;21550;-47
2021/07/17 08:23:53;;;;;;;17.95;13.10;;;;;;;33.99;47.59;101021.07;1616307;88;21060;-48
2021/07/17 08:26:20;;;;;;;17.95;13.95;;;;;;;34.05;47.04;101020.39;1617264;88;21590;-48
2021/07/17 08:28:47;;;;;;;15.13;13.62;;;;;;;34.03;47.38;101022.43;1616867;88;21062;-47
2021/07/17 08:31:14;;;;;;;17.48;13.43;;;;;;;34.04;47.77;101031.73;1609145;88;21089;-49
2021/07/17 08:33:41;;;;;;;17.62;14.68;;;;;;;34.04;47.73;101030.88;1614507;88;21014;-50
2021/07/17 08:36:07;;;;;;;18.25;14.87;;;;;;;34.05;47.99;101028.49;1615292;88;21606;-48
2021/07/17 08:38:34;;;;;;;15.18;13.62;;;;;;;34.06;48.20;101030.19;1616991;88;21042;-46
2021/07/17 08:41:01;;;;;;;17.62;13.45;;;;;;;34.05;48.18;101027.14;1617050;88;21056;-48
2021/07/17 08:43:27;;;;;;;16.00;14.15;;;;;;;34.05;48.21;101032.54;1614609;88;21070;-47
2021/07/17 08:45:54;;;;;;;16.23;13.83;;;;;;;34.04;48.15;101043.03;1615756;88;21526;-50
2021/07/17 08:48:21;;;;;;;20.30;14.13;;;;;;;34.03;47.58;101035.93;1616492;88;21053;-48
2021/07/17 08:50:49;;;;;;;18.55;14.65;;;;;;;34.04;47.94;101028.17;1617090;88;21094;-52
2021/07/17 08:53:17;;;;;;;16.57;14.03;;;;;;;34.06;47.88;101036.44;1616873;88;21077;-47
2021/07/17 08:55:44;;;;;;;17.05;14.00;;;;;;;34.08;48.15;101033.55;1583898;88;21062;-49
2021/07/17 08:58:10;;;;;;;14.85;13.35;;;;;;;34.09;47.92;101028.47;1614847;88;21531;-46
2021/07/17 09:00:40;;;;;;;16.60;14.55;;;;;;;34.11;48.12;101037.23;1616327;88;21057;-49
2021/07/17 09:03:09;;;;;;;15.03;13.32;;;;;;;34.14;48.23;101032.84;1612832;88;21014;-53
2021/07/17 09:05:42;;;;;;;14.45;13.08;;;;;;;34.18;48.12;101038.20;1618343;88;21030;-50
2021/07/17 09:08:07;;;;;;;14.33;13.03;;;;;;;34.20;47.91;101029.41;1621154;87;21050;-52
2021/07/17 09:10:40;;;;;;;14.95;13.32;;;;;;;34.21;47.53;101028.41;1614892;88;21510;-48
2021/07/17 09:13:14;;;;;;;16.73;15.03;;;;;;;34.24;47.43;101032.09;1572923;89;21085;-48
2021/07/17 09:15:51;;;;;;;15.60;14.05;;;;;;;34.28;47.33;101029.36;1580648;89;21126;-48
2021/07/17 09:18:48;;;;;;;17.75;13.68;;;;;;;34.33;47.57;101026.97;1577578;90;21679;-52
2021/07/17 09:21:26;;;;;;;14.78;13.20;;;;;;;34.35;47.71;101027.63;1564184;89;21074;-48
2021/07/17 09:24:03;;;;;;;15.95;14.30;;;;;;;34.35;47.65;101020.88;1534049;89;21730;-48
2021/07/17 09:26:36;;;;;;;14.55;13.10;;;;;;;34.34;47.76;101026.78;1580988;89;21045;-48
2021/07/17 09:29:11;;;;;;;15.32;13.75;;;;;;;34.36;47.89;101022.55;1563546;90;21022;-49
2021/07/17 09:31:52;;;;;;;18.45;13.65;;;;;;;34.37;47.91;101014.78;1596320;89;21522;-52
2021/07/17 09:34:22;;;;;;;14.80;13.45;;;;;;;34.40;47.82;101019.80;1591670;89;21152;-46
2021/07/17 09:36:55;;;;;;;16.30;13.58;;;;;;;34.41;48.06;101014.75;1583403;89;21072;-47
2021/07/17 09:39:35;;;;;;;15.43;13.98;;;;;;;34.42;47.85;101019.11;1594390;89;21070;-47
2021/07/17 09:42:08;;;;;;;15.63;14.00;;;;;;;34.38;47.84;101020.00;1506147;94;21119;-47
2021/07/17 09:44:35;;;;;;;15.68;14.13;;;;;;;34.36;48.23;101015.78;1521969;92;21152;-48
2021/07/17 09:47:15;;;;;;;14.47;13.05;;;;;;;34.37;48.19;101009.38;1532537;92;21112;-48
2021/07/17 09:49:43;;;;;;;16.73;12.98;;;;;;;34.41;48.42;101001.23;1480496;95;25258;-50
2021/07/17 09:52:15;;;;;;;15.28;13.30;;;;;;;34.46;48.23;101007.45;1482907;96;21101;-50
2021/07/17 09:55:07;;;;;;;15.08;13.65;;;;;;;34.48;48.36;101006.23;1482612;97;21134;-48
2021/07/17 09:57:34;;;;;;;14.55;13.05;;;;;;;34.49;48.38;101002.55;1477431;96;21124;-48
2021/07/17 10:00:05;;;;;;;16.57;14.10;;;;;;;34.51;48.02;101004.56;1473538;96;21164;-47
2021/07/17 10:02:36;;;;;;;17.37;13.53;;;;;;;34.54;47.98;101015.53;1448746;98;21103;-48
2021/07/17 10:05:06;;;;;;;16.90;13.88;;;;;;;34.52;48.13;101002.70;1425286;98;21174;-47
2021/07/17 10:07:32;;;;;;;17.95;12.78;;;;;;;34.51;47.77;101007.77;1432475;99;21695;-49
2021/07/17 10:10:00;;;;;;;17.87;12.88;;;;;;;34.44;47.96;101004.91;1451021;98;21155;-49
2021/07/17 10:12:35;;;;;;;14.20;12.80;;;;;;;34.41;48.17;101002.59;1428211;99;21141;-47
2021/07/17 10:15:05;;;;;;;19.67;12.80;;;;;;;34.43;48.11;101008.15;1421156;99;21159;-49
2021/07/17 10:17:39;;;;;;;14.13;12.63;;;;;;;34.48;48.09;100999.47;1415723;100;21135;-47
2021/07/17 10:20:09;;;;;;;13.40;12.10;;;;;;;34.51;47.78;100999.66;1364831;103;21140;-48
2021/07/17 10:22:37;;;;;;;15.27;13.23;;;;;;;34.54;47.36;101002.83;1373536;104;21684;-48
2021/07/17 10:25:06;;;;;;;15.35;13.50;;;;;;;34.52;47.25;100996.77;1347610;105;21129;-48
2021/07/17 10:27:34;;;;;;;16.00;13.45;;;;;;;34.53;47.34;100999.81;1353333;104;21158;-49
2021/07/17 10:30:08;;;;;;;18.48;13.45;;;;;;;34.55;47.48;100996.42;1351124;105;21656;-47
2021/07/17 10:32:36;;;;;;;20.95;13.38;;;;;;;34.58;47.31;100993.37;1348098;105;21191;-50
2021/07/17 10:35:04;;;;;;;14.43;13.03;;;;;;;34.63;46.98;100991.44;1367854;104;21139;-50
2021/07/17 10:37:35;;;;;;;15.38;13.78;;;;;;;34.63;46.74;100993.64;1344553;103;21719;-48
2021/07/17 10:40:12;;;;;;;13.75;12.55;;;;;;;34.62;47.06;100985.22;1407171;102;21183;-48
2021/07/17 10:42:46;;;;;;;15.23;13.20;;;;;;;34.60;46.89;100987.27;1406726;102;21624;-47
2021/07/17 10:45:34;;;;;;;14.07;12.73;;;;;;;34.62;46.94;100988.42;1406258;102;21618;-48
2021/07/17 10:48:03;;;;;;;15.65;13.38;;;;;;;34.62;47.16;100987.92;1400622;102;21128;-51
2021/07/17 10:50:35;;;;;;;14.70;13.40;;;;;;;34.65;47.01;100995.65;1406468;102;21140;-47
2021/07/17 10:53:02;;;;;;;16.05;14.35;;;;;;;34.66;46.86;100985.18;1406430;102;21115;-50
2021/07/17 10:55:33;;;;;;;16.75;13.05;;;;;;;34.69;46.95;100982.09;1406303;100;21128;-50
2021/07/17 10:58:17;;;;;;;14.68;12.78;;;;;;;34.73;47.07;100982.05;1406618;102;21132;-48
2021/07/17 11:00:49;;;;;;;13.53;12.23;;;;;;;34.78;46.77;100975.59;1406011;102;21211;-53
2021/07/17 11:03:21;;;;;;;16.42;14.78;;;;;;;34.78;46.78;100970.19;1406523;101;21131;-49
2021/07/17 11:05:48;;;;;;;25.37;22.93;;;;;;;34.78;46.88;100973.39;1419287;99;21103;-50
2021/07/17 11:08:31;;;;;;;17.07;15.55;;;;;;;34.77;46.42;100971.20;1429547;99;21099;-49
2021/07/17 11:10:58;;;;;;;15.93;14.33;;;;;;;34.77;46.45;100969.00;1474481;96;21114;-49
2021/07/17 11:13:35;;;;;;;16.30;14.38;;;;;;;34.74;46.11;100966.17;1486924;96;21654;-49
2021/07/17 11:16:03;;;;;;;21.02;16.65;;;;;;;34.72;46.24;100962.82;1483032;96;21270;-48
2021/07/17 11:18:36;;;;;;;14.68;13.28;;;;;;;34.71;46.30;100967.88;1486871;96;21574;-54
2021/07/17 11:21:05;;;;;;;60.45;53.98;;;;;;;34.71;45.98;100966.53;1497204;95;21150;-49
2021/07/17 11:23:38;;;;;;;25.37;22.67;;;;;;;34.70;45.98;100959.46;1509659;95;21126;-49